Dades meteomassalio
Diari Summary for Gener 26, 2018 Units:  Metric    English   Both
« Previous Day
Next Day »
Diari Semanal Mensual Anual Personalitzat
  Maxima: Minima: Mijana:
Temperatura: -17.8 °C -15 °C -14.6 °C
Rosada: -17.8 °C -16.3 °C -15.5 °C
Humitat: Humidity % 78 % 89 %
Velocitat del vent: 0 km/h 0 km/h 43.8 km/h
Racha vent: 0 km/h - -
Vent:- - NW
Pressio: 0 hPa 34428.8 hPa -
Pluja: 553.72 mm    
Historical Graphs
 
 
Tabular Data for Gener 26, 2018
Time Temperature Dew Point Pressure Wind Wind Speed Wind Gust Humidity Rainfall Rate (Hourly) solar Conditions
-17.8 °C -17.8 °C 0 hPa Calm     Humidity % 0 mm SolarRadiationWatts/m^2 W/m2 Conditions
00:03 -13.2 °C -13.9 °C 34486.4 hPa North 38.8 km/h 38.8 km/h 91 % 38.1 mm 0.0 W/m2 RA
00:08 -13.2 °C -13.9 °C 34486.4 hPa North 35.7 km/h 35.7 km/h 91 % 38.1 mm 0.0 W/m2 RA
00:13 -13.2 °C -13.9 °C 34496.6 hPa North 59.5 km/h 59.5 km/h 91 % 33.02 mm 0.0 W/m2
00:18 -13.4 °C -14.2 °C 34486.4 hPa NNW 56.6 km/h 56.6 km/h 91 % 25.4 mm 0.0 W/m2 CLR
00:23 -13.4 °C -14.2 °C 34486.4 hPa NNW 53.6 km/h 53.6 km/h 91 % 20.32 mm 0.0 W/m2 CLR
00:28 -13.8 °C -14.6 °C 34486.4 hPa NNW 50.7 km/h 50.7 km/h 91 % 12.7 mm 0.0 W/m2 CLR
00:33 -13.8 °C -14.6 °C 34496.6 hPa North 56.6 km/h 56.6 km/h 91 % 12.7 mm 0.0 W/m2 CLR
00:38 -13.8 °C -14.6 °C 34486.4 hPa North 53.6 km/h 53.6 km/h 91 % 12.7 mm 0.0 W/m2 CLR
00:43 -13.8 °C -14.6 °C 34486.4 hPa NNW 47.6 km/h 47.6 km/h 91 % 12.7 mm 0.0 W/m2 CLR
00:48 -13.8 °C -14.6 °C 34486.4 hPa NNW 56.6 km/h 56.6 km/h 91 % 12.7 mm 0.0 W/m2 CLR
00:53 -14.1 °C -14.8 °C 34486.4 hPa North 56.6 km/h 56.6 km/h 91 % 12.7 mm 0.0 W/m2 RA
00:58 -14.1 °C -14.8 °C 34486.4 hPa NW 59.5 km/h 59.5 km/h 91 % 12.7 mm 0.0 W/m2
01:03 -14.1 °C -14.8 °C 34486.4 hPa NNW 38.8 km/h 38.8 km/h 91 % 12.7 mm 0.0 W/m2 CLR
01:08 -14.1 °C -14.8 °C 34486.4 hPa NW 53.6 km/h 53.6 km/h 91 % 7.62 mm 0.0 W/m2 CLR
01:13 -14.1 °C -14.8 °C 34486.4 hPa NNW 62.6 km/h 62.6 km/h 91 % 12.7 mm 0.0 W/m2 RA
01:18 -14.1 °C -14.8 °C 34486.4 hPa North 47.6 km/h 47.6 km/h 91 % 12.7 mm 0.0 W/m2
01:23 -14.4 °C -15.1 °C 34486.4 hPa NNW 50.7 km/h 50.7 km/h 91 % 12.7 mm 0.0 W/m2 CLR
01:28 -14.4 °C -15.1 °C 34476.3 hPa NNW 41.4 km/h 41.4 km/h 91 % 12.7 mm 0.0 W/m2 RA
01:33 -14.4 °C -15.1 °C 34486.4 hPa NW 47.6 km/h 47.6 km/h 91 % 12.7 mm 0.0 W/m2
01:38 -14.4 °C -15.1 °C 34476.3 hPa NW 50.7 km/h 50.7 km/h 91 % 20.32 mm 0.0 W/m2 RA
01:43 -14.4 °C -15.1 °C 34486.4 hPa NNW 47.6 km/h 47.6 km/h 91 % 25.4 mm 0.0 W/m2 RA
01:48 -14.4 °C -15.1 °C 34476.3 hPa NNW 50.7 km/h 50.7 km/h 91 % 33.02 mm 0.0 W/m2 RA
01:53 -14.4 °C -15.1 °C 34476.3 hPa NW 44.1 km/h 44.1 km/h 91 % 33.02 mm 0.0 W/m2 RA
01:58 -14.4 °C -15.1 °C 34476.3 hPa NW 50.7 km/h 50.7 km/h 91 % 33.02 mm 0.0 W/m2
02:03 -14.4 °C -15.1 °C 34476.3 hPa NNW 53.6 km/h 53.6 km/h 91 % 38.1 mm 0.0 W/m2 RA
02:08 -14.7 °C -15.4 °C 34476.3 hPa NW 38.8 km/h 38.8 km/h 91 % 38.1 mm 0.0 W/m2
02:14 -14.7 °C -15.4 °C 34486.4 hPa NNW 47.6 km/h 47.6 km/h 91 % 38.1 mm 0.0 W/m2 RA
02:19 -14.7 °C -15.4 °C 34476.3 hPa NW 38.8 km/h 38.8 km/h 91 % 38.1 mm 0.0 W/m2
02:24 -14.7 °C -15.4 °C 34486.4 hPa NNW 41.7 km/h 41.7 km/h 91 % 38.1 mm 0.0 W/m2 CLR
02:29 -14.7 °C -15.4 °C 34486.4 hPa NW 35.7 km/h 35.7 km/h 91 % 33.02 mm 0.0 W/m2 CLR
02:34 -14.7 °C -15.4 °C 34486.4 hPa NW 29.8 km/h 29.8 km/h 91 % 33.02 mm 0.0 W/m2 CLR
02:39 -14.7 °C -15.4 °C 34486.4 hPa NW 33.6 km/h 33.6 km/h 91 % 33.02 mm 0.0 W/m2 RA
02:44 -14.7 °C -15.4 °C 34486.4 hPa NW 35.7 km/h 35.7 km/h 91 % 25.4 mm 0.0 W/m2 CLR
02:49 -14.7 °C -15.4 °C 34476.3 hPa NW 26.9 km/h 26.9 km/h 91 % 20.32 mm 0.0 W/m2 CLR
02:54 -14.7 °C -15.4 °C 34476.3 hPa NNW 33.6 km/h 33.6 km/h 91 % 12.7 mm 0.0 W/m2 CLR
02:59 -14.7 °C -15.4 °C 34462.7 hPa WNW 44.7 km/h 44.7 km/h 91 % 12.7 mm 0.0 W/m2 CLR
03:04 -14.7 °C -15.4 °C 34462.7 hPa NW 32.8 km/h 32.8 km/h 91 % 12.7 mm 0.0 W/m2 RA
03:09 -14.7 °C -15.4 °C 34462.7 hPa NW 29.8 km/h 29.8 km/h 91 % 12.7 mm 0.0 W/m2
03:14 -14.7 °C -15.4 °C 34462.7 hPa NNW 29.8 km/h 29.8 km/h 91 % 12.7 mm 0.0 W/m2 CLR
03:19 -14.7 °C -15.4 °C 34476.3 hPa NW 32.8 km/h 32.8 km/h 91 % 12.7 mm 0.0 W/m2 CLR
03:24 -14.7 °C -15.4 °C 34462.7 hPa NW 29.8 km/h 29.8 km/h 91 % 12.7 mm 0.0 W/m2 CLR
03:29 -14.7 °C -15.4 °C 34462.7 hPa NW 33.6 km/h 33.6 km/h 91 % 12.7 mm 0.0 W/m2 CLR
03:34 -14.7 °C -15.4 °C 34462.7 hPa WNW 33.6 km/h 33.6 km/h 91 % 12.7 mm 0.0 W/m2 CLR
03:39 -14.7 °C -15.4 °C 34462.7 hPa WNW 35.7 km/h 35.7 km/h 91 % 7.62 mm 0.0 W/m2 CLR
03:44 -14.7 °C -15.4 °C 34462.7 hPa WNW 32.8 km/h 32.8 km/h 91 % 7.62 mm 0.0 W/m2 CLR
03:49 -14.7 °C -15.4 °C 34476.3 hPa NW 36.2 km/h 36.2 km/h 91 % 7.62 mm 0.0 W/m2 CLR
03:54 -14.7 °C -15.4 °C 34476.3 hPa WNW 44.7 km/h 44.7 km/h 91 % 7.62 mm 0.0 W/m2 CLR
03:59 -14.7 °C -15.4 °C 34462.7 hPa NW 33.6 km/h 33.6 km/h 91 % 7.62 mm 0.0 W/m2 CLR
04:04 -14.7 °C -15.4 °C 34462.7 hPa NW 33.6 km/h 33.6 km/h 91 % 0 mm 0.0 W/m2 CLR
04:09 -14.7 °C -15.4 °C 34462.7 hPa NW 41.7 km/h 41.7 km/h 91 % 0 mm 0.0 W/m2 CLR
04:14 -14.7 °C -15.4 °C 34462.7 hPa NNW 32.8 km/h 32.8 km/h 91 % 7.62 mm 0.0 W/m2 RA
04:19 -14.7 °C -15.4 °C 34462.7 hPa NNW 41.7 km/h 41.7 km/h 91 % 7.62 mm 0.0 W/m2
04:24 -14.7 °C -15.4 °C 34462.7 hPa WNW 38.8 km/h 38.8 km/h 91 % 7.62 mm 0.0 W/m2 CLR
04:29 -14.7 °C -15.4 °C 34462.7 hPa WNW 29.8 km/h 29.8 km/h 91 % 7.62 mm 0.0 W/m2 CLR
04:34 -14.7 °C -15.5 °C 34452.6 hPa NW 41.7 km/h 41.7 km/h 90 % 12.7 mm 0.0 W/m2 RA
04:39 -14.7 °C -15.5 °C 34452.6 hPa North 35.7 km/h 35.7 km/h 90 % 12.7 mm 0.0 W/m2 CLR
04:44 -14.7 °C -15.4 °C 34452.6 hPa NNW 47.6 km/h 47.6 km/h 91 % 12.7 mm 0.0 W/m2 CLR
04:49 -14.7 °C -15.4 °C 34452.6 hPa NNW 35.7 km/h 35.7 km/h 91 % 12.7 mm 0.0 W/m2 CLR
04:54 -14.7 °C -15.4 °C 34452.6 hPa NW 29.8 km/h 29.8 km/h 91 % 12.7 mm 0.0 W/m2 CLR
04:59 -14.7 °C -15.4 °C 34452.6 hPa NW 35.7 km/h 35.7 km/h 91 % 12.7 mm 0.0 W/m2 CLR
05:04 -14.7 °C -15.4 °C 34452.6 hPa NNW 29.8 km/h 29.8 km/h 91 % 12.7 mm 0.0 W/m2 CLR
05:09 -14.7 °C -15.4 °C 34452.6 hPa NNW 33.6 km/h 33.6 km/h 91 % 12.7 mm 0.0 W/m2 CLR
05:14 -14.7 °C -15.4 °C 34452.6 hPa NNW 33.6 km/h 33.6 km/h 91 % 7.62 mm 0.0 W/m2 CLR
05:19 -14.7 °C -15.4 °C 34452.6 hPa NW 29.8 km/h 29.8 km/h 91 % 7.62 mm 0.0 W/m2 CLR
05:24 -14.7 °C -15.4 °C 34462.7 hPa NW 29.8 km/h 29.8 km/h 91 % 12.7 mm 0.0 W/m2 RA
05:29 -14.7 °C -15.4 °C 34462.7 hPa NW 32.8 km/h 32.8 km/h 91 % 12.7 mm 0.0 W/m2 CLR
05:34 -14.7 °C -15.4 °C 34442.4 hPa NW 29.8 km/h 29.8 km/h 91 % 7.62 mm 0.0 W/m2 CLR
05:39 -14.7 °C -15.4 °C 34442.4 hPa NNW 26.9 km/h 26.9 km/h 91 % 7.62 mm 0.0 W/m2 CLR
05:44 -14.7 °C -15.4 °C 34442.4 hPa NNW 23.8 km/h 23.8 km/h 91 % 7.62 mm 0.0 W/m2 CLR
05:49 -14.7 °C -15.4 °C 34442.4 hPa NNW 35.7 km/h 35.7 km/h 91 % 12.7 mm 0.0 W/m2 RA
05:54 -14.7 °C -15.4 °C 34442.4 hPa NNW 29.8 km/h 29.8 km/h 91 % 12.7 mm 0.0 W/m2 CLR
05:59 -14.7 °C -15.4 °C 34442.4 hPa NW 41.7 km/h 41.7 km/h 91 % 12.7 mm 0.0 W/m2 CLR
06:04 -14.7 °C -15.4 °C 34452.6 hPa NW 35.7 km/h 35.7 km/h 91 % 12.7 mm 0.0 W/m2 CLR
06:09 -14.7 °C -15.4 °C 34442.4 hPa NW 49.2 km/h 49.2 km/h 91 % 12.7 mm 0.0 W/m2 RA
06:14 -14.7 °C -15.4 °C 34428.8 hPa North 35.7 km/h 35.7 km/h 91 % 12.7 mm 0.0 W/m2
06:19 -14.7 °C -15.4 °C 34428.8 hPa NW 35.7 km/h 35.7 km/h 91 % 12.7 mm 0.0 W/m2 CLR
06:24 -14.7 °C -15.4 °C 34428.8 hPa NNW 44.7 km/h 44.7 km/h 92 % 12.7 mm 0.0 W/m2 CLR
06:29 -14.7 °C -15.4 °C 34428.8 hPa NNW 35.7 km/h 35.7 km/h 92 % 12.7 mm 0.0 W/m2 RA
06:34 -14.7 °C -15.4 °C 34428.8 hPa NNW 50.7 km/h 50.7 km/h 92 % 12.7 mm 0.0 W/m2 CLR
06:39 -14.7 °C -15.4 °C 34442.4 hPa NNW 41.7 km/h 41.7 km/h 92 % 12.7 mm 0.0 W/m2 CLR
06:44 -14.7 °C -15.4 °C 34452.6 hPa North 38.8 km/h 38.8 km/h 92 % 12.7 mm 0.0 W/m2 CLR
06:49 -14.7 °C -15.4 °C 34452.6 hPa NNW 49.2 km/h 49.2 km/h 92 % 12.7 mm 0.0 W/m2 CLR
06:54 -14.7 °C -15.4 °C 34462.7 hPa NW 41.7 km/h 41.7 km/h 92 % 12.7 mm 0.0 W/m2 CLR
06:59 -14.7 °C -15.4 °C 34452.6 hPa North 56.6 km/h 56.6 km/h 92 % 12.7 mm 0.0 W/m2 RA
07:04 -14.7 °C -15.4 °C 34452.6 hPa North 38.8 km/h 38.8 km/h 92 % 12.7 mm 0.0 W/m2
07:09 -14.7 °C -15.4 °C 34462.7 hPa NNW 47.6 km/h 47.6 km/h 92 % 12.7 mm 0.0 W/m2 CLR
07:14 -14.7 °C -15.4 °C 34462.7 hPa NNW 41.7 km/h 41.7 km/h 92 % 12.7 mm 0.0 W/m2 RA
07:19 -14.7 °C -15.4 °C 34452.6 hPa North 47.6 km/h 47.6 km/h 92 % 12.7 mm 0.0 W/m2 CLR
07:24 -14.7 °C -15.4 °C 34452.6 hPa NNW 41.7 km/h 41.7 km/h 92 % 20.32 mm 0.0 W/m2 RA
07:29 -14.7 °C -15.4 °C 34452.6 hPa NNW 50.7 km/h 50.7 km/h 92 % 12.7 mm 0.0 W/m2
07:34 -15 °C -15.7 °C 34452.6 hPa NNW 50.7 km/h 50.7 km/h 92 % 12.7 mm 0.0 W/m2 CLR
07:39 -15 °C -15.7 °C 34462.7 hPa North 49.2 km/h 49.2 km/h 91 % 12.7 mm 0.0 W/m2 CLR
07:44 -15 °C -15.7 °C 34462.7 hPa NNW 44.7 km/h 44.7 km/h 92 % 20.32 mm 0.0 W/m2 RA
07:49 -15 °C -15.7 °C 34462.7 hPa NW 38.8 km/h 38.8 km/h 92 % 20.32 mm 0.0 W/m2 CLR
07:54 -15 °C -15.7 °C 34462.7 hPa North 47.6 km/h 47.6 km/h 92 % 20.32 mm 0.0 W/m2 CLR
08:00 -15 °C -15.7 °C 34476.3 hPa NW 46.7 km/h 46.7 km/h 92 % 20.32 mm 0.0 W/m2 RA
08:05 -15 °C -15.7 °C 34462.7 hPa NNW 50.7 km/h 50.7 km/h 92 % 25.4 mm 0.0 W/m2 RA
08:10 -15 °C -15.7 °C 34462.7 hPa NNW 38.8 km/h 38.8 km/h 92 % 25.4 mm 0.0 W/m2
08:15 -15 °C -15.7 °C 34462.7 hPa NW 50.7 km/h 50.7 km/h 92 % 25.4 mm 0.0 W/m2 RA
08:20 -15 °C -15.7 °C 34462.7 hPa NNW 56.6 km/h 56.6 km/h 92 % 25.4 mm 0.0 W/m2
08:25 -15 °C -15.7 °C 34462.7 hPa NNW 62.6 km/h 62.6 km/h 92 % 25.4 mm 0.0 W/m2 RA
08:30 -15 °C -15.7 °C 34462.7 hPa NNW 50.7 km/h 50.7 km/h 92 % 33.02 mm 0.0 W/m2 RA
08:35 -15 °C -15.7 °C 34476.3 hPa North 57 km/h 57 km/h 92 % 33.02 mm 0.0 W/m2
08:40 -15 °C -15.7 °C 34476.3 hPa North 56.6 km/h 56.6 km/h 92 % 38.1 mm 0.0 W/m2 RA
08:45 -15 °C -15.7 °C 34476.3 hPa NW 49.2 km/h 49.2 km/h 92 % 33.02 mm 0.0 W/m2 CLR
08:50 -15 °C -15.7 °C 34476.3 hPa NW 50.7 km/h 50.7 km/h 92 % 38.1 mm 0.0 W/m2 RA
08:55 -15 °C -15.7 °C 34486.4 hPa NNW 44.7 km/h 44.7 km/h 92 % 38.1 mm 7.0 W/m2 RA
09:00 -15 °C -15.7 °C 34486.4 hPa NW 35.7 km/h 35.7 km/h 92 % 38.1 mm 5.0 W/m2 RA
09:05 -15 °C -15.7 °C 34486.4 hPa North 41.7 km/h 41.7 km/h 92 % 38.1 mm 7.0 W/m2 RA
09:10 -15 °C -15.7 °C 34486.4 hPa NW 32.8 km/h 32.8 km/h 92 % 45.72 mm 9.0 W/m2 RA
09:15 -15 °C -15.7 °C 34486.4 hPa North 53.6 km/h 53.6 km/h 92 % 45.72 mm 12.0 W/m2 RA
09:20 -15 °C -15.7 °C 34496.6 hPa NNW 51.8 km/h 51.8 km/h 92 % 50.8 mm 14.0 W/m2 RA
09:25 -15 °C -15.7 °C 34496.6 hPa NW 50.7 km/h 50.7 km/h 92 % 50.8 mm 16.0 W/m2 RA
09:30 -15 °C -15.7 °C 34486.4 hPa North 35.7 km/h 35.7 km/h 92 % 45.72 mm 21.0 W/m2 BKN
09:35 -15 °C -15.7 °C 34496.6 hPa NW 50.7 km/h 50.7 km/h 92 % 58.42 mm 23.0 W/m2 RA
09:40 -15 °C -15.7 °C 34496.6 hPa North 44.7 km/h 44.7 km/h 92 % 58.42 mm 19.0 W/m2 RA
09:45 -15 °C -15.7 °C 34496.6 hPa NNW 56.6 km/h 56.6 km/h 92 % 58.42 mm 19.0 W/m2 RA
09:50 -15 °C -15.7 °C 34496.6 hPa NNW 44.7 km/h 44.7 km/h 92 % 63.5 mm 19.0 W/m2 RA
09:55 -15 °C -15.7 °C 34496.6 hPa NNW 44.7 km/h 44.7 km/h 92 % 63.5 mm 21.0 W/m2 RA
10:00 -15 °C -15.7 °C 34510.1 hPa NW 47.6 km/h 47.6 km/h 92 % 63.5 mm 25.0 W/m2 RA
10:05 -15 °C -15.7 °C 34510.1 hPa NNW 35.7 km/h 35.7 km/h 92 % 63.5 mm 32.0 W/m2 RA
10:10 -15 °C -15.7 °C 34510.1 hPa North 46.7 km/h 46.7 km/h 92 % 63.5 mm 42.0 W/m2 RA
10:15 -15 °C -15.7 °C 34510.1 hPa NNW 47.6 km/h 47.6 km/h 92 % 63.5 mm 46.0 W/m2 RA
10:20 -15 °C -15.7 °C 34510.1 hPa NNW 44.7 km/h 44.7 km/h 92 % 71.12 mm 44.0 W/m2 RA
10:25 -15 °C -15.7 °C 34510.1 hPa NNW 38.8 km/h 38.8 km/h 92 % 71.12 mm 42.0 W/m2 RA
10:30 -15 °C -15.7 °C 34510.1 hPa NW 50.7 km/h 50.7 km/h 92 % 71.12 mm 37.0 W/m2 BKN
10:35 -15 °C -15.7 °C 34510.1 hPa NNW 50.7 km/h 50.7 km/h 92 % 63.5 mm 30.0 W/m2 RA
10:40 -15 °C -15.7 °C 34510.1 hPa NNW 54.4 km/h 54.4 km/h 92 % 63.5 mm 30.0 W/m2 RA
10:45 -15 °C -15.7 °C 34510.1 hPa NNW 56.6 km/h 56.6 km/h 92 % 63.5 mm 30.0 W/m2 RA
10:50 -15 °C -15.7 °C 34520.3 hPa NNW 44.7 km/h 44.7 km/h 92 % 58.42 mm 32.0 W/m2 RA
10:55 -15 °C -15.7 °C 34520.3 hPa NNW 56.6 km/h 56.6 km/h 92 % 58.42 mm 32.0 W/m2 RA
11:00 -15 °C -15.7 °C 34520.3 hPa NNW 56.6 km/h 56.6 km/h 92 % 58.42 mm 32.0 W/m2 RA
11:05 -15 °C -15.7 °C 34533.8 hPa NW 59.5 km/h 59.5 km/h 92 % 63.5 mm 33.0 W/m2 RA
11:10 -15 °C -15.7 °C 34533.8 hPa NW 56.6 km/h 56.6 km/h 91 % 63.5 mm 35.0 W/m2 RA
11:15 -15 °C -15.7 °C 34533.8 hPa NNW 59.5 km/h 59.5 km/h 92 % 63.5 mm 35.0 W/m2 RA
11:20 -15 °C -15.7 °C 34533.8 hPa NW 50.7 km/h 50.7 km/h 92 % 58.42 mm 33.0 W/m2 RA
11:25 -15 °C -15.7 °C 34544 hPa NW 59.5 km/h 59.5 km/h 92 % 58.42 mm 33.0 W/m2 RA
11:30 -15 °C -15.7 °C 34544 hPa NNW 50.7 km/h 50.7 km/h 92 % 63.5 mm 32.0 W/m2 RA
11:35 -15 °C -15.7 °C 34544 hPa North 59.5 km/h 59.5 km/h 92 % 63.5 mm 30.0 W/m2 RA
11:40 -15 °C -15.7 °C 34544 hPa NNW 68.6 km/h 68.6 km/h 91 % 63.5 mm 32.0 W/m2 RA
11:45 -15 °C -15.7 °C 34544 hPa NW 62.6 km/h 62.6 km/h 91 % 63.5 mm 35.0 W/m2 RA
11:50 -15 °C -15.7 °C 34544 hPa NNW 53.6 km/h 53.6 km/h 91 % 63.5 mm 37.0 W/m2 RA
11:55 -15 °C -15.7 °C 34554.1 hPa NNW 65.5 km/h 65.5 km/h 91 % 63.5 mm 37.0 W/m2 RA
12:00 -15 °C -15.7 °C 34554.1 hPa North 44.7 km/h 44.7 km/h 91 % 63.5 mm 37.0 W/m2 RA
12:05 -15 °C -15.7 °C 34554.1 hPa NW 44.7 km/h 44.7 km/h 91 % 58.42 mm 40.0 W/m2 RA
12:10 -15 °C -15.7 °C 34554.1 hPa NNW 35.7 km/h 35.7 km/h 91 % 58.42 mm 40.0 W/m2 RA
12:15 -15 °C -15.7 °C 34554.1 hPa NNW 50.7 km/h 50.7 km/h 91 % 58.42 mm 42.0 W/m2 RA
12:20 -14.7 °C -15.4 °C 34554.1 hPa NW 32.8 km/h 32.8 km/h 91 % 58.42 mm 40.0 W/m2 RA
12:25 -14.7 °C -15.4 °C 34554.1 hPa NNW 41.7 km/h 41.7 km/h 92 % 58.42 mm 40.0 W/m2 RA
12:30 -14.7 °C -15.4 °C 34554.1 hPa NNW 41.7 km/h 41.7 km/h 92 % 58.42 mm 37.0 W/m2 RA
12:35 -14.7 °C -15.4 °C 34554.1 hPa NNW 50.7 km/h 50.7 km/h 92 % 58.42 mm 32.0 W/m2 BKN
12:40 -14.7 °C -15.4 °C 34554.1 hPa NNW 47.6 km/h 47.6 km/h 92 % 58.42 mm 28.0 W/m2 RA
12:45 -14.7 °C -15.4 °C 34554.1 hPa NNW 41.7 km/h 41.7 km/h 92 % 58.42 mm 28.0 W/m2 RA
12:50 -14.7 °C -15.4 °C 34554.1 hPa NNW 50.7 km/h 50.7 km/h 92 % 58.42 mm 28.0 W/m2 RA
12:55 -14.7 °C -15.4 °C 34554.1 hPa North 38.8 km/h 38.8 km/h 91 % 50.8 mm 26.0 W/m2 BKN
13:00 -14.7 °C -15.4 °C 34554.1 hPa NNW 35.7 km/h 35.7 km/h 92 % 58.42 mm 23.0 W/m2 RA
13:05 -14.7 °C -15.4 °C 34554.1 hPa NNW 44.7 km/h 44.7 km/h 92 % 58.42 mm 21.0 W/m2 RA
13:10 -14.7 °C -15.4 °C 34554.1 hPa NNW 29.8 km/h 29.8 km/h 91 % 58.42 mm 23.0 W/m2 RA
13:15 -14.7 °C -15.4 °C 34554.1 hPa NW 31.1 km/h 31.1 km/h 92 % 58.42 mm 23.0 W/m2 RA
13:20 -14.7 °C -15.4 °C 34554.1 hPa NNW 35.7 km/h 35.7 km/h 92 % 50.8 mm 25.0 W/m2 BKN
13:25 -14.7 °C -15.4 °C 34554.1 hPa NNW 38.8 km/h 38.8 km/h 92 % 50.8 mm 26.0 W/m2 RA
13:30 -14.7 °C -15.4 °C 34554.1 hPa North 41.7 km/h 41.7 km/h 92 % 45.72 mm 25.0 W/m2 BKN
13:35 -14.4 °C -15.1 °C 34554.1 hPa North 49.2 km/h 49.2 km/h 91 % 50.8 mm 23.0 W/m2 RA
13:40 -14.4 °C -15.1 °C 34554.1 hPa North 56.6 km/h 56.6 km/h 91 % 50.8 mm 25.0 W/m2 RA
13:45 -14.4 °C -15.2 °C 34554.1 hPa NNW 38.8 km/h 38.8 km/h 90 % 50.8 mm 26.0 W/m2 RA
13:50 -14.4 °C -15.2 °C 34554.1 hPa NW 29.8 km/h 29.8 km/h 90 % 45.72 mm 28.0 W/m2 BKN
13:55 -14.4 °C -15.2 °C 34554.1 hPa North 35.7 km/h 35.7 km/h 90 % 50.8 mm 28.0 W/m2 RA
14:00 -14.4 °C -15.2 °C 34554.1 hPa North 29.8 km/h 29.8 km/h 90 % 45.72 mm 26.0 W/m2 RA
14:05 -14.4 °C -15.2 °C 34554.1 hPa NNW 32.8 km/h 32.8 km/h 90 % 45.72 mm 25.0 W/m2 RA
14:10 -14.4 °C -15.2 °C 34554.1 hPa NNW 29.8 km/h 29.8 km/h 90 % 45.72 mm 19.0 W/m2 RA
14:15 -14.4 °C -15.2 °C 34554.1 hPa North 50.7 km/h 50.7 km/h 90 % 45.72 mm 25.0 W/m2 RA
14:20 -14.4 °C -15.2 °C 34554.1 hPa North 23.8 km/h 23.8 km/h 90 % 58.42 mm 21.0 W/m2 RA
14:25 -14.4 °C -15.2 °C 34554.1 hPa North 32.8 km/h 32.8 km/h 90 % 58.42 mm 25.0 W/m2 RA
14:30 -14.4 °C -15.2 °C 34554.1 hPa NNW 12.9 km/h 12.9 km/h 90 % 58.42 mm 26.0 W/m2 RA
14:35 -14.4 °C -15.2 °C 34554.1 hPa NNW 17.9 km/h 17.9 km/h 90 % 58.42 mm 25.0 W/m2 RA
14:40 -14.4 °C -15.2 °C 34554.1 hPa North 20.9 km/h 20.9 km/h 90 % 58.42 mm 28.0 W/m2 RA
14:45 -14.4 °C -15.1 °C 34554.1 hPa NNW 15 km/h 15 km/h 91 % 63.5 mm 30.0 W/m2 RA
14:50 -14.4 °C -15.2 °C 34554.1 hPa Calm     90 % 71.12 mm 30.0 W/m2 RA
14:55 -14.4 °C -15.1 °C 34554.1 hPa Calm     91 % 63.5 mm 33.0 W/m2 BKN
15:00 -14.4 °C -15.1 °C 34554.1 hPa Calm     91 % 63.5 mm 37.0 W/m2 RA
15:05 -14.4 °C -15.1 °C 34554.1 hPa Calm     91 % 58.42 mm 39.0 W/m2 BKN
15:10 -14.4 °C -15.1 °C 34554.1 hPa Calm   3.1 km/h 91 % 58.42 mm 46.0 W/m2 BKN
15:15 -14.4 °C -15.1 °C 34554.1 hPa Calm     91 % 58.42 mm 46.0 W/m2 RA
15:20 -14.4 °C -15.1 °C 34554.1 hPa NNW 20.9 km/h 20.9 km/h 91 % 50.8 mm 44.0 W/m2 RA
15:25 -14.1 °C -14.9 °C 34554.1 hPa NW 23.8 km/h 23.8 km/h 90 % 45.72 mm 44.0 W/m2 BKN
15:30 -14.1 °C -14.9 °C 34554.1 hPa NNW 35.7 km/h 35.7 km/h 90 % 38.1 mm 47.0 W/m2 BKN
15:35 -14.1 °C -15 °C 34554.1 hPa North 29.8 km/h 29.8 km/h 89 % 38.1 mm 44.0 W/m2 SCT
15:40 -14.1 °C -15.1 °C 34567.7 hPa North 32.8 km/h 32.8 km/h 88 % 38.1 mm 46.0 W/m2 RA
15:45 -13.8 °C -14.8 °C 34567.7 hPa NNW 47.6 km/h 47.6 km/h 88 % 25.4 mm 51.0 W/m2 SCT
15:50 -13.8 °C -14.9 °C 34567.7 hPa North 38.8 km/h 38.8 km/h 87 % 20.32 mm 47.0 W/m2 SCT
15:55 -13.8 °C -14.9 °C 34567.7 hPa North 38.8 km/h 38.8 km/h 87 % 20.32 mm 46.0 W/m2 SCT
16:00 -13.8 °C -14.9 °C 34567.7 hPa North 47.6 km/h 47.6 km/h 86 % 12.7 mm 44.0 W/m2 SCT
16:05 -13.8 °C -15.1 °C 34567.7 hPa North 35.7 km/h 35.7 km/h 85 % 12.7 mm 42.0 W/m2 BKN
16:10 -13.8 °C -15.1 °C 34567.7 hPa North 35.7 km/h 35.7 km/h 85 % 12.7 mm 49.0 W/m2 BKN
16:15 -13.8 °C -15.1 °C 34567.7 hPa NNE 29.8 km/h 29.8 km/h 85 % 12.7 mm 65.0 W/m2 SCT
16:20 -13.8 °C -15.1 °C 34567.7 hPa North 31.1 km/h 31.1 km/h 85 % 7.62 mm 72.0 W/m2 SCT
16:25 -13.8 °C -15.1 °C 34567.7 hPa NNW 35.7 km/h 35.7 km/h 85 % 12.7 mm 77.0 W/m2 RA
16:30 -13.8 °C -15.1 °C 34567.7 hPa North 31.1 km/h 31.1 km/h 85 % 12.7 mm 70.0 W/m2 FEW
16:35 -13.8 °C -15.1 °C 34567.7 hPa North 32.8 km/h 32.8 km/h 85 % 12.7 mm 62.0 W/m2 FEW
16:41 -13.8 °C -15.1 °C 34577.8 hPa North 29.8 km/h 29.8 km/h 85 % 7.62 mm 54.0 W/m2 SCT
16:46 -13.8 °C -15.1 °C 34577.8 hPa North 33.6 km/h 33.6 km/h 85 % 7.62 mm 49.0 W/m2 SCT
16:51 -13.8 °C -15.1 °C 34567.7 hPa North 26.9 km/h 26.9 km/h 85 % 7.62 mm 40.0 W/m2 SCT
16:56 -13.8 °C -15.1 °C 34577.8 hPa North 29.8 km/h 29.8 km/h 85 % 12.7 mm 33.0 W/m2 RA
17:01 -13.8 °C -15.2 °C 34577.8 hPa North 33.6 km/h 33.6 km/h 84 % 12.7 mm 28.0 W/m2 BKN
17:06 -13.8 °C -15.2 °C 34577.8 hPa NNW 29.8 km/h 29.8 km/h 84 % 12.7 mm 28.0 W/m2 BKN
17:11 -13.8 °C -15.3 °C 34577.8 hPa North 32.8 km/h 32.8 km/h 83 % 12.7 mm 30.0 W/m2 BKN
17:16 -13.8 °C -15.4 °C 34577.8 hPa NNW 44.7 km/h 44.7 km/h 82 % 12.7 mm 28.0 W/m2 BKN
17:21 -13.8 °C -15.4 °C 34577.8 hPa North 41.7 km/h 41.7 km/h 81 % 12.7 mm 25.0 W/m2 BKN
17:26 -13.8 °C -15.6 °C 34577.8 hPa North 32.8 km/h 32.8 km/h 80 % 7.62 mm 19.0 W/m2 BKN
17:31 -13.8 °C -15.4 °C 34591.4 hPa North 35.7 km/h 35.7 km/h 81 % 7.62 mm 14.0 W/m2 BKN
17:36 -13.8 °C -15.4 °C 34591.4 hPa NNW 33.6 km/h 33.6 km/h 81 % 7.62 mm 11.0 W/m2 BKN
17:41 -14.1 °C -15.7 °C 34591.4 hPa North 44.7 km/h 44.7 km/h 82 % 7.62 mm 7.0 W/m2 BKN
17:46 -14.1 °C -15.6 °C 34591.4 hPa North 46.7 km/h 46.7 km/h 83 % 12.7 mm 7.0 W/m2 RA
17:51 -14.1 °C -15.4 °C 34601.5 hPa North 41.7 km/h 41.7 km/h 84 % 12.7 mm 5.0 W/m2 CLR
17:56 -14.1 °C -15.4 °C 34601.5 hPa North 41.7 km/h 41.7 km/h 84 % 7.62 mm 0.0 W/m2 OVC
18:01 -13.8 °C -15.2 °C 34601.5 hPa NNW 38.8 km/h 38.8 km/h 84 % 7.62 mm 0.0 W/m2 OVC
18:06 -14.1 °C -15.4 °C 34601.5 hPa NNW 47.6 km/h 47.6 km/h 84 % 7.62 mm 0.0 W/m2 OVC
18:11 -14.1 °C -15.4 °C 34601.5 hPa NNW 35.7 km/h 35.7 km/h 84 % 7.62 mm 0.0 W/m2 OVC
18:16 -14.1 °C -15.4 °C 34601.5 hPa NNW 41.7 km/h 41.7 km/h 84 % 7.62 mm 0.0 W/m2 OVC
18:21 -14.1 °C -15.6 °C 34601.5 hPa NW 35.7 km/h 35.7 km/h 83 % 7.62 mm 0.0 W/m2 CLR
18:26 -14.1 °C -15.6 °C 34601.5 hPa NNW 47.6 km/h 47.6 km/h 83 % 7.62 mm 0.0 W/m2 CLR
18:31 -14.1 °C -15.7 °C 34611.7 hPa NNW 44.7 km/h 44.7 km/h 82 % 7.62 mm 0.0 W/m2 CLR
18:36 -14.1 °C -15.7 °C 34611.7 hPa NNW 38.8 km/h 38.8 km/h 82 % 7.62 mm 0.0 W/m2 CLR
18:41 -14.1 °C -15.7 °C 34611.7 hPa NNW 50.7 km/h 50.7 km/h 82 % 7.62 mm 0.0 W/m2 CLR
18:46 -13.8 °C -15.6 °C 34611.7 hPa NNW 38.8 km/h 38.8 km/h 80 % 0 mm 0.0 W/m2 CLR
18:51 -13.8 °C -15.7 °C 34625.2 hPa NNW 71.5 km/h 71.5 km/h 79 % 0 mm 0.0 W/m2 CLR
18:56 -13.8 °C -15.7 °C 34625.2 hPa NNW 53.6 km/h 53.6 km/h 78 % 0 mm 0.0 W/m2 CLR
19:01 -13.8 °C -15.7 °C 34625.2 hPa NW 50.7 km/h 50.7 km/h 78 % 0 mm 0.0 W/m2 CLR
19:06 -13.8 °C -15.7 °C 34625.2 hPa NW 44.7 km/h 44.7 km/h 78 % 0 mm 0.0 W/m2 CLR
19:11 -13.8 °C -15.7 °C 34635.4 hPa NW 29.8 km/h 29.8 km/h 79 % 0 mm 0.0 W/m2 CLR
19:16 -13.8 °C -15.4 °C 34635.4 hPa NW 47.6 km/h 47.6 km/h 81 % 0 mm 0.0 W/m2 CLR
19:21 -13.8 °C -15.4 °C 34635.4 hPa NW 38.8 km/h 38.8 km/h 81 % 0 mm 0.0 W/m2 CLR
19:26 -14.1 °C -15.7 °C 34635.4 hPa NW 41.7 km/h 41.7 km/h 82 % 0 mm 0.0 W/m2 CLR
19:31 -14.1 °C -15.7 °C 34635.4 hPa NW 47.6 km/h 47.6 km/h 82 % 0 mm 0.0 W/m2 CLR
19:36 -14.1 °C -15.7 °C 34635.4 hPa NNW 47.6 km/h 47.6 km/h 82 % 0 mm 0.0 W/m2 CLR
19:41 -14.1 °C -15.6 °C 34645.6 hPa WNW 47.6 km/h 47.6 km/h 83 % 0 mm 0.0 W/m2 CLR
19:46 -14.1 °C -15.6 °C 34645.6 hPa NNW 36.2 km/h 36.2 km/h 83 % 0 mm 0.0 W/m2 CLR
19:51 -14.4 °C -15.8 °C 34645.6 hPa NNW 50.7 km/h 50.7 km/h 84 % 0 mm 0.0 W/m2 CLR
19:56 -14.4 °C -15.8 °C 34659.1 hPa NNW 53.6 km/h 53.6 km/h 84 % 0 mm 0.0 W/m2 CLR
20:01 -14.4 °C -15.8 °C 34659.1 hPa NNW 41.7 km/h 41.7 km/h 84 % 0 mm 0.0 W/m2 CLR
20:06 -14.4 °C -15.8 °C 34659.1 hPa NW 47.6 km/h 47.6 km/h 84 % 0 mm 0.0 W/m2 CLR
20:11 -14.4 °C -15.8 °C 34659.1 hPa NNW 44.7 km/h 44.7 km/h 84 % 0 mm 0.0 W/m2 CLR
20:16 -14.4 °C -15.8 °C 34659.1 hPa North 53.6 km/h 53.6 km/h 84 % 0 mm 0.0 W/m2 CLR
20:21 -14.4 °C -15.8 °C 34659.1 hPa NW 50.7 km/h 50.7 km/h 84 % 0 mm 0.0 W/m2 CLR
20:26 -14.7 °C -16.1 °C 34659.1 hPa NNW 50.7 km/h 50.7 km/h 84 % 0 mm 0.0 W/m2 CLR
20:31 -14.7 °C -16 °C 34669.3 hPa NNW 49.2 km/h 49.2 km/h 85 % 0 mm 0.0 W/m2 CLR
20:36 -14.7 °C -16.1 °C 34669.3 hPa NNW 62.6 km/h 62.6 km/h 84 % 0 mm 0.0 W/m2 CLR
20:41 -14.7 °C -16 °C 34669.3 hPa North 59.5 km/h 59.5 km/h 85 % 0 mm 0.0 W/m2 CLR
20:46 -14.7 °C -16 °C 34669.3 hPa NNW 71.5 km/h 71.5 km/h 85 % 0 mm 0.0 W/m2 CLR
20:51 -14.7 °C -16 °C 34669.3 hPa NNW 50.7 km/h 50.7 km/h 85 % 0 mm 0.0 W/m2 CLR
20:56 -14.7 °C -16 °C 34669.3 hPa NNW 59.5 km/h 59.5 km/h 85 % 0 mm 0.0 W/m2 CLR
21:01 -14.7 °C -16 °C 34669.3 hPa NW 62.6 km/h 62.6 km/h 85 % 0 mm 0.0 W/m2 CLR
21:06 -14.7 °C -16 °C 34682.8 hPa NW 65.5 km/h 65.5 km/h 85 % 0 mm 0.0 W/m2 CLR
21:11 -14.7 °C -16 °C 34682.8 hPa NW 59.5 km/h 59.5 km/h 85 % 0 mm 0.0 W/m2 CLR
21:16 -14.7 °C -16 °C 34682.8 hPa NNW 62.6 km/h 62.6 km/h 85 % 0 mm 0.0 W/m2 CLR
21:21 -14.7 °C -15.9 °C 34682.8 hPa NW 65.5 km/h 65.5 km/h 86 % 0 mm 0.0 W/m2 CLR
21:26 -14.7 °C -15.9 °C 34682.8 hPa NW 59.5 km/h 59.5 km/h 86 % 0 mm 0.0 W/m2 CLR
21:31 -14.7 °C -16 °C 34682.8 hPa NNW 59.5 km/h 59.5 km/h 85 % 0 mm 0.0 W/m2 CLR
21:36 -14.7 °C -16 °C 34682.8 hPa NW 59.5 km/h 59.5 km/h 85 % 0 mm 0.0 W/m2 CLR
21:41 -14.7 °C -16 °C 34682.8 hPa NW 68.6 km/h 68.6 km/h 85 % 0 mm 0.0 W/m2 CLR
21:46 -14.7 °C -16 °C 34682.8 hPa NNW 64.7 km/h 64.7 km/h 85 % 0 mm 0.0 W/m2 CLR
21:51 -14.7 °C -16 °C 34693 hPa NW 51.8 km/h 51.8 km/h 85 % 0 mm 0.0 W/m2 CLR
21:56 -14.7 °C -16 °C 34693 hPa NNW 59.5 km/h 59.5 km/h 85 % 0 mm 0.0 W/m2 CLR
22:01 -14.7 °C -15.9 °C 34693 hPa NW 53.6 km/h 53.6 km/h 86 % 0 mm 0.0 W/m2 CLR
22:06 -14.7 °C -16 °C 34693 hPa NNW 54.4 km/h 54.4 km/h 85 % 0 mm 0.0 W/m2 CLR
22:11 -14.7 °C -15.9 °C 34693 hPa NNW 53.6 km/h 53.6 km/h 86 % 0 mm 0.0 W/m2 CLR
22:16 -14.7 °C -16 °C 34703.1 hPa NNW 65.5 km/h 65.5 km/h 85 % 0 mm 0.0 W/m2 CLR
22:21 -14.7 °C -15.9 °C 34693 hPa North 56.6 km/h 56.6 km/h 86 % 0 mm 0.0 W/m2 CLR
22:26 -14.7 °C -15.9 °C 34703.1 hPa NW 56.6 km/h 56.6 km/h 86 % 0 mm 0.0 W/m2 CLR
22:31 -14.7 °C -16 °C 34703.1 hPa NW 59.5 km/h 59.5 km/h 85 % 0 mm 0.0 W/m2 CLR
22:36 -14.7 °C -16 °C 34703.1 hPa NNW 53.6 km/h 53.6 km/h 85 % 0 mm 0.0 W/m2 CLR
22:41 -14.7 °C -16 °C 34716.7 hPa NW 53.6 km/h 53.6 km/h 85 % 0 mm 0.0 W/m2 CLR
22:46 -15 °C -16.3 °C 34716.7 hPa NW 65.5 km/h 65.5 km/h 85 % 0 mm 0.0 W/m2 CLR
22:51 -15 °C -16.3 °C 34716.7 hPa NW 62.6 km/h 62.6 km/h 85 % 0 mm 0.0 W/m2 CLR
22:56 -15 °C -16.3 °C 34716.7 hPa NNW 65.5 km/h 65.5 km/h 85 % 0 mm 0.0 W/m2 CLR
23:01 -15 °C -16.2 °C 34716.7 hPa NW 62.6 km/h 62.6 km/h 86 % 0 mm 0.0 W/m2 CLR
23:06 -15 °C -16.2 °C 34716.7 hPa NNW 53.6 km/h 53.6 km/h 86 % 0 mm 0.0 W/m2 CLR
23:11 -15 °C -16.2 °C 34716.7 hPa NNW 65.5 km/h 65.5 km/h 86 % 0 mm 0.0 W/m2 CLR
23:17 -15 °C -16.3 °C 34716.7 hPa NW 74.5 km/h 74.5 km/h 85 % 0 mm 0.0 W/m2 CLR
23:21 -15 °C -16.3 °C 34716.7 hPa NW 59.5 km/h 59.5 km/h 85 % 0 mm 0.0 W/m2 CLR
23:27 -15 °C -16.3 °C 34726.8 hPa NNW 62.6 km/h 62.6 km/h 85 % 0 mm 0.0 W/m2 CLR
23:32 -15 °C -16.3 °C 34716.7 hPa NNW 50.7 km/h 50.7 km/h 85 % 0 mm 0.0 W/m2 CLR
23:37 -15 °C -16.3 °C 34726.8 hPa NW 50.7 km/h 50.7 km/h 85 % 0 mm 0.0 W/m2 CLR
23:42 -15 °C -16.3 °C 34740.4 hPa NNW 65.5 km/h 65.5 km/h 85 % 0 mm 0.0 W/m2 CLR
23:47 -15 °C -16.3 °C 34740.4 hPa NNW 44.7 km/h 44.7 km/h 85 % 0 mm 0.0 W/m2 CLR
23:52 -15 °C -16.3 °C 34740.4 hPa NW 53.6 km/h 53.6 km/h 85 % 0 mm 0.0 W/m2 CLR
23:57 -15 °C -16.3 °C 34740.4 hPa NNW 62.6 km/h 62.6 km/h 85 % 0 mm 0.0 W/m2 CLR
Lo Temps de Massalio
Compliments of Weather Underground - 1.25 mb